createdAt,value
2022-10-11T00:00:20.888Z,10.90
2022-10-11T00:05:44.328Z,10.10
2022-10-11T00:10:57.794Z,8.80
2022-10-11T00:16:00.744Z,10.20
2022-10-11T00:21:10.081Z,11.30
2022-10-11T00:26:12.900Z,10.30
2022-10-11T00:31:16.587Z,12.10
2022-10-11T00:36:19.335Z,9.50
2022-10-11T00:41:22.383Z,9.40
2022-10-11T00:46:28.201Z,9.60
2022-10-11T00:51:40.208Z,14.00
2022-10-11T00:56:46.625Z,11.20
2022-10-11T01:01:49.491Z,8.90
2022-10-11T01:06:53.513Z,11.00
2022-10-11T01:11:59.668Z,14.00
2022-10-11T01:17:20.197Z,12.40
2022-10-11T01:22:42.007Z,11.90
2022-10-11T01:28:10.021Z,13.40
2022-10-11T01:33:28.535Z,11.30
2022-10-11T01:38:43.603Z,14.40
2022-10-11T01:43:48.544Z,12.90
2022-10-11T01:48:54.928Z,11.20
2022-10-11T01:54:49.785Z,13.60
2022-10-11T02:00:12.653Z,14.20
2022-10-11T02:05:51.896Z,13.80
2022-10-11T02:11:27.569Z,13.20
2022-10-11T02:16:42.732Z,13.70
2022-10-11T02:21:52.528Z,13.90
2022-10-11T02:26:59.493Z,13.00
2022-10-11T02:32:02.332Z,13.20
2022-10-11T02:37:29.870Z,14.90
2022-10-11T02:42:40.286Z,15.90
2022-10-11T02:47:44.036Z,20.10
2022-10-11T02:52:46.699Z,17.00
2022-10-11T02:57:49.403Z,14.00
2022-10-11T03:02:52.457Z,14.70
2022-10-11T03:07:56.398Z,37.70
2022-10-11T03:12:59.127Z,17.30
2022-10-11T03:18:01.913Z,12.30
2022-10-11T03:23:04.615Z,15.00
2022-10-11T03:28:07.420Z,15.70
2022-10-11T03:33:10.262Z,19.60
2022-10-11T03:39:06.544Z,17.50
2022-10-11T03:55:27.208Z,19.50
2022-10-11T04:00:29.987Z,17.80
2022-10-11T04:05:32.662Z,19.30
2022-10-11T04:15:51.983Z,16.10
2022-10-11T04:20:54.688Z,18.70
2022-10-11T04:31:20.896Z,16.10
2022-10-11T04:36:28.113Z,25.00
2022-10-11T04:41:38.225Z,27.90
2022-10-11T04:46:41.189Z,24.20
2022-10-11T04:51:44.221Z,24.60
2022-10-11T04:56:46.925Z,24.70
2022-10-11T05:01:49.636Z,24.00
2022-10-11T05:06:52.451Z,18.20
2022-10-11T05:11:55.189Z,19.30
2022-10-11T05:16:58.205Z,16.70
2022-10-11T05:22:00.867Z,18.80
2022-10-11T05:27:03.813Z,17.20
2022-10-11T05:32:06.633Z,16.60
2022-10-11T05:37:09.450Z,17.10
2022-10-11T05:42:12.423Z,23.10
2022-10-11T05:47:15.176Z,20.10
2022-10-11T05:52:21.808Z,24.90
2022-10-11T05:57:24.656Z,19.00
2022-10-11T06:02:28.797Z,19.50
2022-10-11T06:07:39.554Z,21.70
2022-10-11T06:13:14.919Z,21.00
2022-10-11T06:18:48.728Z,31.90
2022-10-11T06:24:03.269Z,31.10
2022-10-11T06:29:06.416Z,28.80
2022-10-11T06:34:09.881Z,28.80
2022-10-11T06:39:13.068Z,27.50
2022-10-11T06:44:16.890Z,27.20
2022-10-11T06:49:23.249Z,19.80
2022-10-11T06:59:29.489Z,20.50
2022-10-11T07:04:33.917Z,22.70
2022-10-11T07:09:36.826Z,21.70
2022-10-11T07:14:39.524Z,16.10
2022-10-11T07:19:42.195Z,13.50
2022-10-11T07:24:44.887Z,11.90
2022-10-11T07:29:48.019Z,12.80
2022-10-11T07:34:51.870Z,11.10
2022-10-11T07:39:54.616Z,8.70
2022-10-11T07:44:57.588Z,7.20
2022-10-11T07:50:00.554Z,12.60
2022-10-11T07:55:24.144Z,8.20
2022-10-11T08:00:27.112Z,6.10
2022-10-11T08:05:32.587Z,6.10
2022-10-11T08:10:39.870Z,5.40
2022-10-11T08:15:48.901Z,8.30
2022-10-11T08:20:55.010Z,5.40
2022-10-11T08:25:58.586Z,8.50
2022-10-11T08:31:01.781Z,5.40
2022-10-11T08:36:07.352Z,8.50
2022-10-11T08:41:28.878Z,7.00
2022-10-11T08:46:35.408Z,6.60
2022-10-11T08:51:45.381Z,6.30
2022-10-11T08:56:49.823Z,5.40
2022-10-11T09:02:16.218Z,7.40
2022-10-11T09:07:40.085Z,8.10
2022-10-11T09:13:04.328Z,7.30
2022-10-11T09:18:26.040Z,5.50
2022-10-11T09:23:43.652Z,6.30
2022-10-11T09:28:46.518Z,7.50
2022-10-11T09:33:52.035Z,6.50
2022-10-11T09:39:01.838Z,5.90
2022-10-11T09:44:09.543Z,5.20
2022-10-11T09:49:16.392Z,6.60
2022-10-11T09:54:32.777Z,9.30
2022-10-11T09:59:43.696Z,4.80
2022-10-11T10:05:08.363Z,4.70
2022-10-11T10:10:42.982Z,7.10
2022-10-11T10:15:48.762Z,5.20
2022-10-11T10:20:55.589Z,7.00
2022-10-11T10:26:16.227Z,6.90
2022-10-11T10:31:30.827Z,6.70
2022-10-11T10:36:44.185Z,6.30
2022-10-11T10:41:48.275Z,3.60
2022-10-11T10:47:07.644Z,8.70
2022-10-11T10:52:41.656Z,8.20
2022-10-11T10:58:35.890Z,10.10
2022-10-11T11:03:52.924Z,8.40
2022-10-11T11:09:29.770Z,7.20
2022-10-11T11:14:46.637Z,3.90
2022-10-11T11:20:15.871Z,6.70
2022-10-11T11:25:44.977Z,6.80
2022-10-11T11:31:07.569Z,5.60
2022-10-11T11:36:29.384Z,6.50
2022-10-11T11:41:40.854Z,6.70
2022-10-11T11:46:57.001Z,9.40
2022-10-11T11:52:00.700Z,6.80
2022-10-11T11:57:31.869Z,3.80
2022-10-11T12:02:43.418Z,7.50
2022-10-11T12:07:54.020Z,6.00
2022-10-11T12:13:02.742Z,4.40
2022-10-11T12:18:15.388Z,3.80
2022-10-11T12:23:30.406Z,5.90
2022-10-11T12:28:42.647Z,6.70
2022-10-11T12:33:52.839Z,5.60
2022-10-11T12:39:20.998Z,6.20
2022-10-11T12:44:30.318Z,5.00
2022-10-11T12:50:21.566Z,7.00
2022-10-11T12:55:40.803Z,8.60
2022-10-11T13:01:03.554Z,7.90
2022-10-11T13:06:20.917Z,7.10
2022-10-11T13:11:29.801Z,7.70
2022-10-11T13:16:50.054Z,11.40
2022-10-11T13:21:57.122Z,5.40
2022-10-11T13:26:59.928Z,5.30
2022-10-11T13:32:18.335Z,7.40
2022-10-11T13:37:23.987Z,6.50
2022-10-11T13:42:37.099Z,6.30
2022-10-11T13:47:40.809Z,6.00
2022-10-11T13:53:00.191Z,6.50
2022-10-11T13:58:23.705Z,4.70
2022-10-11T14:03:43.762Z,8.10
2022-10-11T14:08:58.610Z,9.00
2022-10-11T14:14:40.628Z,3.90
2022-10-11T14:19:45.516Z,10.30
2022-10-11T14:24:50.130Z,9.30
2022-10-11T14:30:20.265Z,6.60
2022-10-11T14:35:18.998Z,8.60
2022-10-11T14:40:31.883Z,7.30
2022-10-11T14:45:34.982Z,7.90
2022-10-11T14:50:43.660Z,12.80
2022-10-11T14:55:46.870Z,8.30
2022-10-11T15:00:49.551Z,9.00
2022-10-11T15:05:52.276Z,7.30
2022-10-11T15:10:55.751Z,11.90
2022-10-11T15:15:59.407Z,8.70
2022-10-11T15:21:02.202Z,6.40
2022-10-11T15:26:06.102Z,6.50
2022-10-11T15:31:11.104Z,7.40
2022-10-11T15:36:17.345Z,6.20
2022-10-11T15:41:21.277Z,9.60
2022-10-11T15:46:24.063Z,9.70
2022-10-11T15:51:27.647Z,15.60
2022-10-11T15:56:33.710Z,14.10
2022-10-11T16:01:36.678Z,7.80
2022-10-11T16:06:41.147Z,12.10
2022-10-11T16:11:43.904Z,8.70
2022-10-11T16:16:46.707Z,7.80
2022-10-11T16:21:49.459Z,9.20
2022-10-11T16:26:52.218Z,11.60
2022-10-11T16:31:54.983Z,12.70
2022-10-11T16:36:57.734Z,12.30
2022-10-11T16:42:00.465Z,12.40
2022-10-11T16:47:03.428Z,11.00
2022-10-11T16:52:06.152Z,14.90
2022-10-11T16:57:10.732Z,11.40
2022-10-11T17:02:32.551Z,6.60
2022-10-11T17:07:36.206Z,11.10
2022-10-11T17:12:38.951Z,10.40
2022-10-11T17:17:41.670Z,20.70
2022-10-11T17:22:44.414Z,32.10
2022-10-11T17:27:47.441Z,21.30
2022-10-11T17:32:54.360Z,18.00
2022-10-11T17:37:57.092Z,23.90
2022-10-11T17:42:59.993Z,31.40
2022-10-11T17:48:04.106Z,44.30
2022-10-11T17:53:06.830Z,44.00
2022-10-11T17:58:11.929Z,44.10
2022-10-11T18:03:14.630Z,48.40
2022-10-11T18:08:17.355Z,36.00
2022-10-11T18:13:20.117Z,35.00
2022-10-11T18:18:22.863Z,32.70
2022-10-11T18:23:25.713Z,33.50
2022-10-11T18:28:28.757Z,36.80
2022-10-11T18:33:31.962Z,27.10
2022-10-11T18:38:37.936Z,17.90
2022-10-11T18:43:41.411Z,19.70
2022-10-11T18:48:46.728Z,17.60
2022-10-11T18:53:49.678Z,20.90
2022-10-11T18:58:55.085Z,38.50
2022-10-11T19:04:00.101Z,35.80
2022-10-11T19:09:12.703Z,21.60
2022-10-11T19:14:17.323Z,24.90
2022-10-11T19:19:24.224Z,20.70
2022-10-11T19:29:33.142Z,18.40
2022-10-11T19:34:35.895Z,15.50
2022-10-11T19:39:40.605Z,16.50
2022-10-11T19:44:43.349Z,19.00
2022-10-11T19:49:46.031Z,12.90
2022-10-11T19:54:48.945Z,17.30
2022-10-11T19:59:51.654Z,13.30
2022-10-11T20:04:54.508Z,14.70
2022-10-11T20:09:57.396Z,9.70
2022-10-11T20:15:00.080Z,12.10
2022-10-11T20:20:02.757Z,17.80
2022-10-11T20:25:06.190Z,14.80
2022-10-11T20:30:10.290Z,15.00
2022-10-11T20:35:13.009Z,15.30
2022-10-11T20:40:15.922Z,10.20
2022-10-11T20:45:18.611Z,13.50
2022-10-11T20:50:23.142Z,17.40
2022-10-11T20:55:26.114Z,14.60
2022-10-11T21:00:28.835Z,13.60
2022-10-11T21:05:31.863Z,14.50
2022-10-11T21:10:34.549Z,12.90
2022-10-11T21:15:37.254Z,14.70
2022-10-11T21:20:41.521Z,15.70
2022-10-11T21:25:44.222Z,13.10
2022-10-11T21:30:47.607Z,10.50
2022-10-11T21:35:50.381Z,14.90
2022-10-11T21:40:58.811Z,12.00
2022-10-11T21:46:10.138Z,13.30
2022-10-11T21:51:16.362Z,20.90
2022-10-11T21:56:19.346Z,14.00
2022-10-11T22:01:22.113Z,14.80
2022-10-11T22:06:24.817Z,15.10
2022-10-11T22:11:27.740Z,16.40
2022-10-11T22:16:30.554Z,14.60
2022-10-11T22:21:33.278Z,10.70
2022-10-11T22:26:35.970Z,8.70
2022-10-11T22:31:38.715Z,10.30
2022-10-11T22:36:41.391Z,12.20
2022-10-11T22:41:44.084Z,13.10
2022-10-11T22:46:46.834Z,12.70
2022-10-11T22:51:49.879Z,10.60
2022-10-11T22:56:52.539Z,14.10
2022-10-11T23:01:55.197Z,17.00
2022-10-11T23:07:01.303Z,11.70
2022-10-11T23:12:07.764Z,9.70
2022-10-11T23:17:10.547Z,14.90
2022-10-11T23:22:13.329Z,14.40
2022-10-11T23:27:16.115Z,10.50
2022-10-11T23:32:18.799Z,12.10
2022-10-11T23:37:21.582Z,12.80
2022-10-11T23:42:24.217Z,12.90
2022-10-11T23:47:26.863Z,14.80
2022-10-11T23:52:29.544Z,13.80
2022-10-11T23:57:32.199Z,12.90
